Time;durP1;ratioP1;P1;durP2;ratioP2;P2;SDS_P1;SDS_P2;PMS_P1;PMS_P2;Temp;Humidity;BMP_temperature;BMP_pressure;BME280_temperature;BME280_humidity;BME280_pressure;Samples;Min_cycle;Max_cycle;Signal;HPM_P1;HPM_P2
2021/10/22 00:00:55;;;;;;;8.47;2.30;;;7.30;99.90;;;;;;5027797;28;20608;-72
2021/10/22 00:03:22;;;;;;;9.17;1.90;;;7.40;99.90;;;;;;5028476;28;20209;-72
2021/10/22 00:05:49;;;;;;;5.50;1.70;;;7.30;99.90;;;;;;5028356;28;20209;-71
2021/10/22 00:08:16;;;;;;;5.53;1.90;;;7.40;99.90;;;;;;5027265;28;20208;-71
2021/10/22 00:10:43;;;;;;;4.37;1.60;;;7.40;99.90;;;;;;5027328;28;20220;-71
2021/10/22 00:13:09;;;;;;;4.10;1.90;;;7.30;99.90;;;;;;5027032;28;20204;-71
2021/10/22 00:15:37;;;;;;;7.50;2.27;;;7.30;99.90;;;;;;5027271;28;20224;-70
2021/10/22 00:18:04;;;;;;;7.97;2.07;;;7.20;99.90;;;;;;5026503;28;20776;-71
2021/10/22 00:20:31;;;;;;;7.27;1.70;;;7.20;99.90;;;;;;5026654;28;20233;-73
2021/10/22 00:22:57;;;;;;;5.83;2.27;;;7.20;99.90;;;;;;5027773;28;20200;-73
2021/10/22 00:25:24;;;;;;;6.77;1.70;;;7.20;99.90;;;;;;5028286;28;20213;-73
2021/10/22 00:27:51;;;;;;;9.93;2.20;;;7.20;99.90;;;;;;5028219;28;20413;-74
2021/10/22 00:30:18;;;;;;;5.80;1.60;;;7.10;99.90;;;;;;5028436;28;20573;-73
2021/10/22 00:32:46;;;;;;;6.43;1.97;;;7.10;99.90;;;;;;5028259;28;20205;-73
2021/10/22 00:35:12;;;;;;;5.63;2.03;;;7.20;99.90;;;;;;5028021;28;20235;-73
2021/10/22 00:37:39;;;;;;;5.37;2.20;;;7.10;99.90;;;;;;5027575;28;20282;-73
2021/10/22 00:40:07;;;;;;;8.80;2.13;;;7.10;99.90;;;;;;5027734;28;20225;-74
2021/10/22 00:42:48;;;;;;;6.87;2.10;;;7.10;99.90;;;;;;5027825;28;20663;-73
2021/10/22 00:45:15;;;;;;;6.47;2.00;;;7.10;99.90;;;;;;5028003;28;20588;-73
2021/10/22 00:47:43;;;;;;;6.40;2.13;;;7.00;99.90;;;;;;5028099;28;20224;-73
2021/10/22 00:50:11;;;;;;;7.80;2.23;;;7.00;99.90;;;;;;5027972;28;20212;-73
2021/10/22 00:52:39;;;;;;;10.87;2.43;;;7.00;99.90;;;;;;5028015;28;20235;-73
2021/10/22 00:55:11;;;;;;;7.30;1.93;;;7.00;99.90;;;;;;5027819;28;20209;-74
2021/10/22 00:57:39;;;;;;;5.57;1.60;;;7.10;99.90;;;;;;5028041;28;20279;-73
2021/10/22 01:00:07;;;;;;;7.23;2.20;;;7.00;99.90;;;;;;5027183;28;20256;-73
2021/10/22 01:02:40;;;;;;;4.00;2.00;;;7.00;99.90;;;;;;5028093;28;20204;-73
2021/10/22 01:05:10;;;;;;;6.73;2.13;;;6.90;99.90;;;;;;5028043;28;20193;-73
2021/10/22 01:07:39;;;;;;;5.90;2.10;;;6.90;99.90;;;;;;5027809;28;20208;-73
2021/10/22 01:10:07;;;;;;;4.57;1.80;;;6.90;99.90;;;;;;5027865;28;20208;-73
2021/10/22 01:12:34;;;;;;;10.10;2.57;;;6.90;99.90;;;;;;5028084;28;20302;-74
2021/10/22 01:15:02;;;;;;;4.93;1.73;;;6.90;99.90;;;;;;5014729;28;20233;-74
2021/10/22 01:17:33;;;;;;;8.67;2.10;;;6.90;99.90;;;;;;5007919;28;20237;-73
2021/10/22 01:20:00;;;;;;;7.43;2.17;;;6.90;99.90;;;;;;5008006;28;20694;-73
2021/10/22 01:22:28;;;;;;;6.23;2.20;;;6.90;99.90;;;;;;5008412;28;20218;-72
2021/10/22 01:24:55;;;;;;;8.67;2.37;;;6.90;99.90;;;;;;5008198;28;20233;-71
2021/10/22 01:27:22;;;;;;;5.27;1.90;;;6.80;99.90;;;;;;5007961;28;20259;-72
2021/10/22 01:29:49;;;;;;;9.70;2.03;;;6.90;99.90;;;;;;5007903;28;20209;-72
2021/10/22 01:32:15;;;;;;;4.57;2.00;;;7.00;99.90;;;;;;5008237;28;20213;-71
2021/10/22 01:34:44;;;;;;;3.77;1.57;;;6.90;99.90;;;;;;5011237;28;20212;-71
2021/10/22 01:37:10;;;;;;;5.77;1.60;;;6.90;99.90;;;;;;5011047;28;20232;-71
2021/10/22 01:39:38;;;;;;;7.13;2.00;;;6.90;99.90;;;;;;5010887;28;20202;-71
2021/10/22 01:42:05;;;;;;;8.13;2.10;;;6.90;99.90;;;;;;5011212;28;20202;-71
2021/10/22 01:44:32;;;;;;;6.30;2.00;;;6.90;99.90;;;;;;5010810;28;20683;-71
2021/10/22 01:46:59;;;;;;;6.30;1.93;;;6.90;99.90;;;;;;5010785;28;20661;-71
2021/10/22 01:49:25;;;;;;;7.67;2.10;;;6.90;99.90;;;;;;5010992;28;20276;-71
2021/10/22 01:51:52;;;;;;;5.70;2.23;;;6.90;99.90;;;;;;5010798;28;20205;-71
2021/10/22 01:54:19;;;;;;;10.03;2.20;;;6.90;99.90;;;;;;5010956;28;20210;-71
2021/10/22 01:56:47;;;;;;;7.30;1.87;;;7.00;99.90;;;;;;5010982;28;20221;-72
2021/10/22 01:59:14;;;;;;;8.03;2.37;;;7.00;99.90;;;;;;5010536;28;20269;-72
2021/10/22 02:01:41;;;;;;;9.73;2.77;;;6.90;99.90;;;;;;5010590;28;20241;-72
2021/10/22 02:04:07;;;;;;;7.93;2.10;;;6.90;99.90;;;;;;5010507;28;20261;-72
2021/10/22 02:06:34;;;;;;;7.20;2.07;;;6.90;99.90;;;;;;5010768;28;20654;-72
2021/10/22 02:09:03;;;;;;;6.13;2.17;;;6.90;99.90;;;;;;5010258;28;20742;-72
2021/10/22 02:11:31;;;;;;;8.27;2.13;;;6.90;99.90;;;;;;5010538;28;20217;-73
2021/10/22 02:13:59;;;;;;;7.53;2.30;;;6.90;99.90;;;;;;5010549;28;20206;-72
2021/10/22 02:16:26;;;;;;;8.43;2.43;;;6.90;99.90;;;;;;5010362;28;20264;-72
2021/10/22 02:18:53;;;;;;;9.33;2.20;;;6.90;99.90;;;;;;5010446;28;20248;-71
2021/10/22 02:21:20;;;;;;;5.43;2.07;;;6.90;99.90;;;;;;5010469;28;20248;-72
2021/10/22 02:23:46;;;;;;;7.67;2.43;;;6.90;99.90;;;;;;5010319;28;20602;-72
2021/10/22 02:26:13;;;;;;;8.27;2.37;;;6.90;99.90;;;;;;5009891;28;20237;-71
2021/10/22 02:28:40;;;;;;;7.13;2.43;;;6.80;99.90;;;;;;5009550;28;20214;-71
2021/10/22 02:31:08;;;;;;;5.73;2.33;;;6.90;99.90;;;;;;5009924;28;20664;-72
2021/10/22 02:33:34;;;;;;;8.27;2.63;;;6.90;99.90;;;;;;5010182;28;20205;-71
2021/10/22 02:36:01;;;;;;;7.87;2.07;;;6.80;99.90;;;;;;5010032;28;20210;-70
2021/10/22 02:38:27;;;;;;;6.17;1.90;;;6.80;99.90;;;;;;5018792;28;20274;-71
2021/10/22 02:40:54;;;;;;;7.20;2.07;;;6.80;99.90;;;;;;5025469;28;20775;-70
2021/10/22 02:43:21;;;;;;;8.43;1.93;;;6.80;99.90;;;;;;5026099;28;20219;-71
2021/10/22 02:45:47;;;;;;;9.00;2.50;;;6.80;99.90;;;;;;5026003;28;20246;-71
2021/10/22 02:48:15;;;;;;;5.57;2.40;;;6.80;99.90;;;;;;5026204;28;20220;-71
2021/10/22 02:50:42;;;;;;;10.47;3.03;;;6.90;99.90;;;;;;5025684;28;20691;-71
2021/10/22 02:53:09;;;;;;;6.63;2.40;;;6.90;99.90;;;;;;5025865;28;20591;-71
2021/10/22 02:55:35;;;;;;;6.10;1.90;;;7.00;99.90;;;;;;5026266;28;20213;-71
2021/10/22 02:58:02;;;;;;;6.37;2.23;;;7.00;99.90;;;;;;5025471;28;20260;-70
2021/10/22 03:00:28;;;;;;;5.97;2.13;;;6.90;99.90;;;;;;5025566;28;20989;-71
2021/10/22 03:02:55;;;;;;;9.57;2.23;;;6.90;99.90;;;;;;5025453;28;20240;-71
2021/10/22 03:05:23;;;;;;;4.73;2.10;;;6.90;99.90;;;;;;5025676;28;20208;-71
2021/10/22 03:07:51;;;;;;;7.27;2.70;;;6.90;99.90;;;;;;5025806;28;20243;-71
2021/10/22 03:10:19;;;;;;;9.73;2.33;;;6.90;99.90;;;;;;5025828;28;20215;-71
2021/10/22 03:12:45;;;;;;;4.00;1.77;;;6.90;99.90;;;;;;5025567;28;20759;-71
2021/10/22 03:15:12;;;;;;;8.63;2.70;;;6.90;99.90;;;;;;5023617;28;20275;-71
2021/10/22 03:17:39;;;;;;;5.10;2.30;;;6.90;99.90;;;;;;5023668;28;20208;-71
2021/10/22 03:20:12;;;;;;;6.07;2.50;;;6.90;99.90;;;;;;5026796;28;20811;-71
2021/10/22 03:22:41;;;;;;;7.03;1.93;;;6.90;99.90;;;;;;5028919;28;20251;-71
2021/10/22 03:25:17;;;;;;;7.50;2.17;;;6.90;99.90;;;;;;5029006;28;20583;-71
2021/10/22 03:27:48;;;;;;;3.67;2.00;;;7.00;99.90;;;;;;5029219;28;20284;-71
2021/10/22 03:30:15;;;;;;;9.40;1.97;;;7.00;99.90;;;;;;5028995;28;20265;-71
2021/10/22 03:32:47;;;;;;;6.27;2.17;;;7.00;99.90;;;;;;5028847;28;20585;-71
2021/10/22 03:35:14;;;;;;;7.53;2.27;;;7.00;99.90;;;;;;5028582;28;20197;-71
2021/10/22 03:37:42;;;;;;;8.23;2.07;;;7.10;99.90;;;;;;5028410;28;20359;-71
2021/10/22 03:40:10;;;;;;;7.63;1.80;;;7.00;99.90;;;;;;5028218;28;20228;-71
2021/10/22 03:42:42;;;;;;;6.17;1.60;;;7.00;99.90;;;;;;5028314;28;20239;-71
2021/10/22 03:45:09;;;;;;;6.70;1.93;;;7.00;99.90;;;;;;5028177;28;20208;-71
2021/10/22 03:47:36;;;;;;;4.93;1.80;;;6.90;99.90;;;;;;5028583;28;20209;-71
2021/10/22 03:50:03;;;;;;;10.73;2.00;;;6.90;99.90;;;;;;5028481;28;20208;-71
2021/10/22 03:52:32;;;;;;;7.27;2.30;;;6.90;99.90;;;;;;5028764;28;20212;-71
2021/10/22 03:55:00;;;;;;;7.07;1.90;;;6.90;99.90;;;;;;5027553;28;20204;-71
2021/10/22 03:57:29;;;;;;;6.77;2.13;;;6.90;99.90;;;;;;5028302;28;20324;-71
2021/10/22 04:00:03;;;;;;;4.97;1.80;;;6.90;99.90;;;;;;5028058;28;20253;-71
2021/10/22 04:02:29;;;;;;;4.73;2.00;;;6.90;99.90;;;;;;5028372;28;20205;-71
2021/10/22 04:04:56;;;;;;;4.63;1.80;;;6.90;99.90;;;;;;5028388;28;20258;-71
2021/10/22 04:07:26;;;;;;;6.87;1.73;;;6.90;99.90;;;;;;5028591;28;20219;-71
2021/10/22 04:09:53;;;;;;;8.17;1.80;;;6.90;99.90;;;;;;5028362;28;20217;-71
2021/10/22 04:12:23;;;;;;;5.33;2.23;;;6.80;99.90;;;;;;5028549;28;20240;-71
2021/10/22 04:14:50;;;;;;;12.47;3.03;;;6.80;99.90;;;;;;5028410;28;20228;-71
2021/10/22 04:17:17;;;;;;;6.23;3.50;;;6.80;99.90;;;;;;5028379;28;20209;-71
2021/10/22 04:19:44;;;;;;;7.70;2.10;;;6.80;99.90;;;;;;5027864;28;20272;-71
2021/10/22 04:22:11;;;;;;;5.50;1.77;;;6.80;99.90;;;;;;5027841;28;20928;-71
2021/10/22 04:24:38;;;;;;;2.00;1.23;;;6.80;99.90;;;;;;5027931;28;20748;-71
2021/10/22 04:27:05;;;;;;;7.90;1.77;;;6.80;99.90;;;;;;5027786;28;20667;-71
2021/10/22 04:29:33;;;;;;;6.70;1.67;;;6.80;99.90;;;;;;5028225;28;20246;-71
2021/10/22 04:32:00;;;;;;;5.80;1.73;;;6.90;99.90;;;;;;5028037;28;20323;-71
2021/10/22 04:34:28;;;;;;;3.63;1.60;;;6.90;99.90;;;;;;5028027;28;20258;-71
2021/10/22 04:37:01;;;;;;;7.60;1.97;;;6.90;99.90;;;;;;5028055;28;20225;-71
2021/10/22 04:42:12;;;;;;;7.90;1.87;;;6.90;99.90;;;;;;5027916;28;20563;-71
2021/10/22 04:44:40;;;;;;;5.97;2.00;;;6.90;99.90;;;;;;5028193;28;20209;-71
2021/10/22 04:47:07;;;;;;;5.27;1.80;;;7.00;99.90;;;;;;5027487;28;20201;-71
2021/10/22 04:49:33;;;;;;;5.53;1.87;;;6.90;99.90;;;;;;5027402;28;20675;-71
2021/10/22 04:52:00;;;;;;;4.50;1.90;;;6.90;99.90;;;;;;5027392;28;20205;-71
2021/10/22 04:54:29;;;;;;;6.17;2.00;;;6.90;99.90;;;;;;5027911;28;20205;-71
2021/10/22 04:56:56;;;;;;;3.03;1.43;;;6.90;99.90;;;;;;5027899;28;20267;-71
2021/10/22 04:59:23;;;;;;;5.73;1.80;;;6.90;99.90;;;;;;5027735;28;20247;-71
2021/10/22 05:01:51;;;;;;;5.10;2.10;;;6.90;99.90;;;;;;5027319;28;20241;-71
2021/10/22 05:04:17;;;;;;;6.50;2.07;;;6.90;99.90;;;;;;5027846;28;20212;-71
2021/10/22 05:06:44;;;;;;;6.80;1.47;;;6.90;99.90;;;;;;5029061;28;20567;-71
2021/10/22 05:09:10;;;;;;;5.77;2.10;;;7.00;99.90;;;;;;5031508;28;20248;-71
2021/10/22 05:11:37;;;;;;;6.13;1.70;;;7.00;99.90;;;;;;5031377;28;20209;-71
2021/10/22 05:14:06;;;;;;;7.50;1.87;;;6.90;99.90;;;;;;5030551;28;20255;-71
2021/10/22 05:16:32;;;;;;;10.10;2.00;;;6.90;99.90;;;;;;5010790;28;20201;-71
2021/10/22 05:19:00;;;;;;;10.77;1.83;;;6.90;99.90;;;;;;5010441;28;20750;-71
2021/10/22 05:21:27;;;;;;;5.10;1.70;;;6.90;99.90;;;;;;5011619;28;20208;-71
2021/10/22 05:23:54;;;;;;;5.07;1.57;;;6.90;99.90;;;;;;5011345;28;20889;-71
2021/10/22 05:26:21;;;;;;;4.50;1.77;;;7.00;99.90;;;;;;5011592;28;20644;-71
2021/10/22 05:28:47;;;;;;;5.80;1.53;;;7.00;99.90;;;;;;5011535;28;20209;-71
2021/10/22 05:31:14;;;;;;;5.97;2.03;;;6.90;99.90;;;;;;5011492;28;20216;-71
2021/10/22 05:33:40;;;;;;;6.50;2.07;;;6.90;99.90;;;;;;5011347;28;20288;-71
2021/10/22 05:36:09;;;;;;;4.17;2.13;;;6.90;99.90;;;;;;5011193;28;20226;-71
2021/10/22 05:38:35;;;;;;;5.77;2.00;;;6.90;99.90;;;;;;5011088;28;20225;-71
2021/10/22 05:41:02;;;;;;;5.30;1.83;;;6.90;99.90;;;;;;5011285;28;20209;-71
2021/10/22 05:43:29;;;;;;;6.23;1.70;;;6.90;99.90;;;;;;5011104;28;20205;-71
2021/10/22 05:45:55;;;;;;;6.43;1.93;;;6.90;99.90;;;;;;5011042;28;20206;-71
2021/10/22 05:48:22;;;;;;;5.53;2.03;;;6.90;99.90;;;;;;5010949;28;20606;-71
2021/10/22 05:50:48;;;;;;;6.60;1.80;;;6.90;99.90;;;;;;5010971;28;20243;-72
2021/10/22 05:53:19;;;;;;;5.97;2.00;;;6.90;99.90;;;;;;5010858;28;20216;-71
2021/10/22 05:55:46;;;;;;;4.13;1.93;;;6.90;99.90;;;;;;5011162;28;20201;-71
2021/10/22 05:58:13;;;;;;;9.63;2.17;;;6.90;99.90;;;;;;5010730;28;20253;-71
2021/10/22 06:00:41;;;;;;;7.03;2.13;;;6.90;99.90;;;;;;5010436;28;20276;-72
2021/10/22 06:03:08;;;;;;;4.93;1.60;;;6.90;99.90;;;;;;5010657;28;20574;-71
2021/10/22 06:05:40;;;;;;;6.90;2.37;;;7.00;99.90;;;;;;5010715;28;20267;-71
2021/10/22 06:08:09;;;;;;;9.20;2.30;;;7.00;99.90;;;;;;5010681;28;20225;-71
2021/10/22 06:10:38;;;;;;;5.33;1.70;;;7.00;99.90;;;;;;5010614;28;20299;-71
2021/10/22 06:13:05;;;;;;;7.80;1.90;;;7.10;99.90;;;;;;5010422;28;20249;-71
2021/10/22 06:15:32;;;;;;;7.63;2.37;;;7.10;99.90;;;;;;5010276;28;20725;-71
2021/10/22 06:17:59;;;;;;;12.27;2.53;;;7.10;99.90;;;;;;5009755;28;20205;-71
2021/10/22 06:20:30;;;;;;;5.03;2.13;;;7.10;99.90;;;;;;5009921;28;20716;-72
2021/10/22 06:25:44;;;;;;;5.67;1.70;;;7.30;99.90;;;;;;5010198;28;20237;-71
2021/10/22 06:28:15;;;;;;;6.73;1.80;;;7.30;99.90;;;;;;5010201;28;20202;-71
2021/10/22 06:30:44;;;;;;;6.50;2.23;;;7.30;99.90;;;;;;5010374;28;20213;-71
2021/10/22 06:33:10;;;;;;;5.90;1.80;;;7.30;99.90;;;;;;5009370;28;20252;-71
2021/10/22 06:35:44;;;;;;;7.70;2.00;;;7.40;99.90;;;;;;5010021;28;20707;-71
2021/10/22 06:38:10;;;;;;;5.33;1.77;;;7.40;99.90;;;;;;5009856;28;20194;-71
2021/10/22 06:40:37;;;;;;;5.10;1.80;;;7.40;99.90;;;;;;5009973;28;20237;-71
2021/10/22 06:43:08;;;;;;;7.43;2.07;;;7.50;99.90;;;;;;5009815;28;20539;-71
2021/10/22 06:45:37;;;;;;;5.07;1.90;;;7.50;99.90;;;;;;5010166;28;20221;-71
2021/10/22 06:48:03;;;;;;;3.33;1.70;;;7.50;99.90;;;;;;5009916;28;20205;-71
2021/10/22 06:50:35;;;;;;;5.70;1.90;;;7.50;99.90;;;;;;5009929;28;20264;-71
2021/10/22 06:53:11;;;;;;;5.37;1.77;;;7.50;99.90;;;;;;5009874;28;20216;-71
2021/10/22 06:55:41;;;;;;;5.97;2.00;;;7.60;99.90;;;;;;5009617;28;20574;-71
2021/10/22 06:58:13;;;;;;;5.57;1.97;;;7.60;99.90;;;;;;5009709;28;20587;-71
2021/10/22 07:00:50;;;;;;;;;;;;;;;;;;;;;
2021/10/22 07:03:24;;;;;;;6.80;1.90;;;7.60;99.90;;;;;;5009569;28;20209;-71
2021/10/22 07:06:03;;;;;;;6.20;1.90;;;7.60;99.90;;;;;;5009390;28;20194;-72
2021/10/22 07:08:28;;;;;;;7.73;2.10;;;7.60;99.90;;;;;;5009722;28;20750;-71
2021/10/22 07:10:56;;;;;;;6.20;2.10;;;7.60;99.90;;;;;;5009375;28;20221;-71
2021/10/22 07:13:24;;;;;;;8.27;2.10;;;7.60;99.90;;;;;;5009201;28;20248;-71
2021/10/22 07:15:51;;;;;;;7.27;2.17;;;7.70;99.90;;;;;;5009374;28;20251;-72
2021/10/22 07:18:17;;;;;;;5.50;1.90;;;7.70;99.90;;;;;;5009226;28;20237;-71
2021/10/22 07:20:44;;;;;;;5.57;1.73;;;7.70;99.90;;;;;;5009251;28;20237;-72
2021/10/22 07:23:12;;;;;;;7.23;2.10;;;7.70;99.90;;;;;;5008856;28;20283;-71
2021/10/22 07:25:43;;;;;;;5.77;1.80;;;7.80;99.90;;;;;;5009102;28;20590;-71
2021/10/22 07:28:14;;;;;;;6.03;1.70;;;7.80;99.90;;;;;;5009080;28;20217;-71
2021/10/22 07:30:48;;;;;;;3.83;1.53;;;7.80;99.90;;;;;;5008470;28;20249;-72
2021/10/22 07:33:22;;;;;;;7.00;1.93;;;7.90;99.90;;;;;;5009295;28;20204;-71
2021/10/22 07:35:49;;;;;;;6.27;1.53;;;7.90;99.90;;;;;;5008787;28;20229;-71
2021/10/22 07:38:16;;;;;;;7.00;1.77;;;7.90;99.90;;;;;;5009165;28;20294;-71
2021/10/22 07:40:44;;;;;;;2.83;1.50;;;7.90;99.90;;;;;;5009021;28;20268;-72
2021/10/22 07:43:11;;;;;;;4.90;1.90;;;7.90;99.90;;;;;;5008720;28;20214;-72
2021/10/22 07:45:40;;;;;;;5.03;1.90;;;7.90;99.90;;;;;;5009205;28;20209;-71
2021/10/22 07:48:08;;;;;;;3.60;1.40;;;8.00;99.90;;;;;;5008742;28;20206;-71
2021/10/22 07:50:37;;;;;;;5.90;1.90;;;8.00;99.90;;;;;;5008749;28;20202;-71
2021/10/22 07:53:05;;;;;;;6.27;2.10;;;8.00;99.90;;;;;;5008387;28;20227;-72
2021/10/22 07:55:40;;;;;;;6.60;1.77;;;8.00;99.90;;;;;;5008913;28;20201;-72
2021/10/22 07:58:11;;;;;;;5.63;1.90;;;8.00;99.90;;;;;;5008431;28;20233;-70
2021/10/22 08:00:38;;;;;;;8.10;1.73;;;8.00;99.90;;;;;;5008404;28;20245;-70
2021/10/22 08:03:05;;;;;;;5.70;2.13;;;8.10;99.90;;;;;;5008712;28;20205;-71
2021/10/22 08:05:33;;;;;;;3.23;1.70;;;8.10;99.90;;;;;;5008833;28;20213;-70
2021/10/22 08:07:59;;;;;;;5.30;2.27;;;8.10;99.90;;;;;;5008458;28;20202;-70
2021/10/22 08:10:26;;;;;;;6.70;2.23;;;8.10;99.90;;;;;;5008466;28;20206;-70
2021/10/22 08:12:53;;;;;;;7.30;1.60;;;8.10;99.90;;;;;;5007895;28;20275;-70
2021/10/22 08:15:20;;;;;;;5.23;2.33;;;8.10;99.90;;;;;;5008629;28;20213;-70
2021/10/22 08:17:59;;;;;;;6.87;2.20;;;8.10;99.90;;;;;;5008535;28;20423;-70
2021/10/22 08:20:27;;;;;;;4.97;1.90;;;8.10;99.90;;;;;;5008521;28;20257;-70
2021/10/22 08:22:55;;;;;;;6.03;2.17;;;8.10;99.90;;;;;;5008445;28;20678;-70
2021/10/22 08:25:22;;;;;;;5.30;2.07;;;8.20;99.90;;;;;;5008364;28;20216;-71
2021/10/22 08:27:50;;;;;;;3.50;1.83;;;8.10;99.90;;;;;;5008527;28;20232;-71
2021/10/22 08:30:39;;;;;;;8.37;2.23;;;8.20;99.90;;;;;;5008087;28;20629;-71
2021/10/22 08:33:15;;;;;;;5.20;2.03;;;8.20;99.90;;;;;;5007781;28;20656;-71
2021/10/22 08:35:42;;;;;;;9.13;2.40;;;8.20;99.90;;;;;;5008157;28;20225;-71
2021/10/22 08:38:11;;;;;;;4.30;1.90;;;8.30;99.90;;;;;;5008272;28;20646;-71
2021/10/22 08:40:38;;;;;;;4.43;1.97;;;8.30;99.90;;;;;;5008204;28;20240;-71
2021/10/22 08:43:05;;;;;;;4.87;1.63;;;8.30;99.90;;;;;;5011813;28;20213;-71
2021/10/22 08:45:33;;;;;;;4.47;1.57;;;8.40;99.90;;;;;;5012419;28;20217;-71
2021/10/22 08:48:00;;;;;;;6.70;1.77;;;8.40;99.90;;;;;;5012329;28;20211;-71
2021/10/22 08:50:27;;;;;;;6.97;2.00;;;8.50;99.90;;;;;;5012208;28;20237;-71
2021/10/22 08:52:54;;;;;;;4.20;1.73;;;8.50;99.90;;;;;;5011890;28;20210;-71
2021/10/22 08:55:22;;;;;;;5.27;2.07;;;8.60;99.90;;;;;;5012061;28;20205;-71
2021/10/22 08:57:50;;;;;;;5.80;2.20;;;8.60;99.90;;;;;;5011928;28;20256;-71
2021/10/22 09:00:18;;;;;;;4.93;1.93;;;8.70;99.90;;;;;;5011571;28;20614;-71
2021/10/22 09:02:49;;;;;;;6.40;1.90;;;8.70;99.90;;;;;;5011931;28;20574;-71
2021/10/22 09:05:18;;;;;;;6.27;2.20;;;8.80;99.90;;;;;;5011859;28;20201;-71
2021/10/22 09:07:47;;;;;;;2.50;1.67;;;8.80;99.90;;;;;;5011855;28;20206;-71
2021/10/22 09:10:22;;;;;;;5.53;1.93;;;8.90;99.90;;;;;;5011652;28;20206;-71
2021/10/22 09:12:53;;;;;;;8.90;1.90;;;8.90;99.90;;;;;;5011752;28;20225;-71
2021/10/22 09:15:23;;;;;;;6.43;2.30;;;9.00;99.90;;;;;;5012263;28;20198;-71
2021/10/22 09:17:51;;;;;;;4.90;1.80;;;9.10;99.90;;;;;;5011689;28;20202;-71
2021/10/22 09:20:18;;;;;;;4.90;2.00;;;9.20;99.90;;;;;;5011864;28;20233;-71
2021/10/22 09:22:51;;;;;;;4.90;1.50;;;9.30;99.90;;;;;;5011834;28;20212;-72
2021/10/22 09:25:21;;;;;;;4.70;2.07;;;9.30;99.90;;;;;;5011371;28;20222;-71
2021/10/22 09:27:52;;;;;;;4.77;2.10;;;9.30;99.90;;;;;;5011760;28;20201;-71
2021/10/22 09:30:32;;;;;;;6.03;2.20;;;9.30;99.90;;;;;;5011116;28;20754;-71
2021/10/22 09:33:04;;;;;;;7.53;2.20;;;9.20;99.90;;;;;;5011427;28;20276;-71
2021/10/22 09:35:40;;;;;;;3.47;1.97;;;9.20;99.90;;;;;;5011400;28;20284;-71
2021/10/22 09:38:12;;;;;;;5.47;1.73;;;9.20;99.90;;;;;;5011040;28;20423;-71
2021/10/22 09:40:40;;;;;;;5.83;2.10;;;9.20;99.90;;;;;;5011101;28;20711;-71
2021/10/22 09:43:24;;;;;;;3.87;1.87;;;9.20;99.90;;;;;;5011359;28;20217;-71
2021/10/22 09:45:52;;;;;;;6.73;2.00;;;9.20;99.90;;;;;;5010918;28;20239;-71
2021/10/22 09:48:27;;;;;;;8.37;2.07;;;9.30;99.90;;;;;;5011326;28;20256;-71
2021/10/22 09:50:56;;;;;;;5.83;2.07;;;9.20;99.90;;;;;;5011057;28;20207;-72
2021/10/22 09:53:24;;;;;;;7.10;2.23;;;9.20;99.90;;;;;;5009835;28;20764;-71
2021/10/22 09:56:01;;;;;;;4.70;2.03;;;9.20;99.90;;;;;;5010934;28;20739;-71
2021/10/22 09:58:30;;;;;;;7.30;2.13;;;9.10;99.90;;;;;;5011082;28;20196;-71
2021/10/22 10:01:11;;;;;;;7.00;2.40;;;9.10;99.90;;;;;;5010411;28;20801;-71
2021/10/22 10:03:40;;;;;;;6.73;2.33;;;9.10;99.90;;;;;;5010953;28;20225;-71
2021/10/22 10:06:08;;;;;;;4.83;2.40;;;9.20;99.90;;;;;;5010716;28;20221;-71
2021/10/22 10:08:37;;;;;;;5.97;2.00;;;9.20;99.90;;;;;;5010860;28;20292;-72
2021/10/22 10:11:04;;;;;;;5.30;1.93;;;9.30;99.90;;;;;;5010770;28;20241;-71
2021/10/22 10:13:34;;;;;;;7.80;2.83;;;9.30;99.90;;;;;;5010874;28;20229;-71
2021/10/22 10:16:03;;;;;;;5.83;2.10;;;9.30;99.90;;;;;;5010710;28;20194;-71
2021/10/22 10:18:35;;;;;;;5.20;1.63;;;9.30;99.90;;;;;;5010909;28;20225;-71
2021/10/22 10:21:04;;;;;;;4.00;1.80;;;9.30;99.90;;;;;;5010251;28;20252;-71
2021/10/22 10:23:32;;;;;;;4.90;1.83;;;9.40;99.90;;;;;;5010637;28;20259;-71
2021/10/22 10:26:18;;;;;;;3.63;1.60;;;9.40;99.90;;;;;;5010069;28;20236;-71
2021/10/22 10:28:46;;;;;;;6.00;1.70;;;9.40;99.90;;;;;;5010597;28;20193;-72
2021/10/22 10:31:31;;;;;;;4.43;1.73;;;9.40;99.90;;;;;;5010190;28;20296;-71
2021/10/22 10:33:59;;;;;;;5.43;1.90;;;9.30;99.90;;;;;;5010283;28;20570;-71
2021/10/22 10:36:45;;;;;;;7.83;1.97;;;9.40;99.90;;;;;;5010246;28;20230;-71
2021/10/22 10:39:12;;;;;;;8.47;1.97;;;9.40;99.90;;;;;;5010119;28;20244;-71
2021/10/22 10:41:38;;;;;;;4.13;1.57;;;9.30;99.90;;;;;;5009924;28;20703;-71
2021/10/22 10:44:34;;;;;;;5.33;1.97;;;9.30;99.90;;;;;;5010253;28;20213;-71
2021/10/22 10:47:01;;;;;;;3.10;1.40;;;9.30;99.90;;;;;;5010246;28;20201;-71
2021/10/22 10:49:59;;;;;;;2.40;1.60;;;9.30;99.90;;;;;;5010234;28;20209;-71
2021/10/22 10:52:56;;;;;;;3.23;1.73;;;9.40;99.90;;;;;;5010136;28;20231;-71
2021/10/22 10:55:27;;;;;;;4.70;1.57;;;9.40;99.90;;;;;;5010025;28;20228;-71
2021/10/22 10:57:58;;;;;;;4.30;2.13;;;9.30;99.90;;;;;;5009559;28;20229;-71
2021/10/22 11:00:30;;;;;;;2.83;1.50;;;9.40;99.90;;;;;;5009459;28;20245;-72
2021/10/22 11:03:21;;;;;;;1.57;1.30;;;9.40;99.90;;;;;;5009889;28;20190;-71
2021/10/22 11:06:16;;;;;;;1.97;1.33;;;9.40;99.90;;;;;;5009204;28;20251;-71
2021/10/22 11:08:50;;;;;;;3.60;1.70;;;9.40;99.90;;;;;;5009895;28;20198;-72
2021/10/22 11:11:29;;;;;;;5.77;2.23;;;9.40;99.90;;;;;;5009260;28;20202;-72
2021/10/22 11:14:14;;;;;;;4.53;1.90;;;9.50;99.90;;;;;;5009525;28;20222;-71
2021/10/22 11:16:50;;;;;;;5.07;1.60;;;9.50;99.90;;;;;;5009669;28;20189;-71
2021/10/22 11:19:19;;;;;;;5.67;1.50;;;9.60;99.90;;;;;;5009566;28;20194;-71
2021/10/22 11:21:48;;;;;;;4.07;1.63;;;9.60;99.90;;;;;;5009012;28;20233;-71
2021/10/22 11:24:17;;;;;;;3.03;1.50;;;9.70;99.90;;;;;;5009608;28;20209;-71
2021/10/22 11:26:44;;;;;;;3.90;1.50;;;9.70;99.90;;;;;;5009577;28;20432;-71
2021/10/22 11:29:17;;;;;;;3.67;1.40;;;9.80;99.90;;;;;;5009336;28;20209;-72
2021/10/22 11:31:47;;;;;;;4.97;1.63;;;9.80;99.90;;;;;;5009413;28;20216;-72
2021/10/22 11:34:17;;;;;;;6.87;2.13;;;9.90;99.90;;;;;;5009168;28;20232;-71
2021/10/22 11:36:53;;;;;;;7.53;2.07;;;9.90;99.90;;;;;;5009345;28;20213;-72
2021/10/22 11:39:21;;;;;;;4.37;1.97;;;10.00;99.90;;;;;;5009479;28;20190;-72
2021/10/22 11:42:03;;;;;;;2.97;1.10;;;10.00;99.90;;;;;;5009168;28;20331;-72
2021/10/22 11:44:30;;;;;;;2.30;1.60;;;10.00;99.90;;;;;;5009182;28;20198;-72
2021/10/22 11:46:58;;;;;;;4.53;1.80;;;10.00;99.90;;;;;;5008858;28;20221;-72
2021/10/22 11:49:26;;;;;;;3.23;1.43;;;10.00;99.90;;;;;;5008910;28;20750;-72
2021/10/22 11:51:54;;;;;;;3.57;1.60;;;10.00;99.90;;;;;;5008694;28;20256;-72
2021/10/22 11:54:23;;;;;;;5.23;1.70;;;10.00;99.90;;;;;;5009041;28;20216;-72
2021/10/22 11:56:50;;;;;;;4.17;1.77;;;10.10;99.90;;;;;;5008776;28;20240;-72
2021/10/22 11:59:18;;;;;;;4.47;1.80;;;10.10;99.90;;;;;;5009074;28;20310;-72
2021/10/22 12:01:45;;;;;;;5.30;1.50;;;10.10;99.90;;;;;;5008293;28;20605;-72
2021/10/22 12:04:24;;;;;;;3.97;1.47;;;10.20;99.90;;;;;;5008835;28;20209;-72
2021/10/22 12:07:02;;;;;;;4.03;1.53;;;10.20;99.90;;;;;;5008523;28;20634;-72
2021/10/22 12:09:35;;;;;;;6.77;1.70;;;10.20;99.90;;;;;;5008908;28;20197;-72
2021/10/22 12:12:10;;;;;;;3.17;1.73;;;10.20;99.90;;;;;;5008393;28;20412;-72
2021/10/22 12:14:39;;;;;;;2.53;1.53;;;10.20;99.90;;;;;;5008861;28;20239;-72
2021/10/22 12:17:07;;;;;;;5.53;1.60;;;10.20;99.90;;;;;;5007969;28;20214;-72
2021/10/22 12:19:35;;;;;;;4.10;1.47;;;10.20;99.90;;;;;;5008651;28;20263;-72
2021/10/22 12:22:02;;;;;;;2.87;1.40;;;10.20;99.90;;;;;;5008521;28;20268;-72
2021/10/22 12:24:41;;;;;;;5.13;1.60;;;10.20;99.90;;;;;;5008498;28;20206;-73
2021/10/22 12:27:09;;;;;;;9.20;1.53;;;10.20;99.90;;;;;;5007820;28;20611;-72
2021/10/22 12:29:58;;;;;;;7.30;1.70;;;10.20;99.90;;;;;;5008447;28;20206;-72
2021/10/22 12:32:43;;;;;;;3.67;1.73;;;10.20;99.90;;;;;;5008485;28;20208;-72
2021/10/22 12:35:19;;;;;;;4.37;1.80;;;10.20;99.90;;;;;;5008505;28;20509;-72
2021/10/22 12:37:47;;;;;;;4.37;1.50;;;10.30;99.90;;;;;;5008417;28;20295;-72
2021/10/22 12:40:26;;;;;;;4.97;1.90;;;10.40;99.90;;;;;;5008396;28;20201;-72
2021/10/22 12:43:20;;;;;;;4.57;1.53;;;10.40;99.90;;;;;;5008392;28;20232;-72
2021/10/22 12:45:50;;;;;;;2.10;1.60;;;10.40;99.90;;;;;;5008482;28;20202;-72
2021/10/22 12:48:18;;;;;;;3.70;1.53;;;10.40;99.90;;;;;;5008282;28;20209;-72
2021/10/22 12:50:47;;;;;;;8.60;1.80;;;10.40;99.90;;;;;;5007949;28;20614;-72
2021/10/22 12:53:16;;;;;;;3.27;1.60;;;10.40;99.90;;;;;;5008258;28;20213;-72
2021/10/22 12:55:44;;;;;;;5.53;1.93;;;10.40;99.90;;;;;;5008222;28;20235;-72
2021/10/22 12:58:22;;;;;;;4.63;1.60;;;10.40;99.90;;;;;;5008071;28;20212;-72
2021/10/22 13:01:14;;;;;;;4.93;1.63;;;10.40;99.90;;;;;;5007937;28;20241;-72
2021/10/22 13:03:43;;;;;;;6.33;1.63;;;10.30;99.90;;;;;;5008347;28;20206;-72
2021/10/22 13:09:38;;;;;;;8.43;2.50;;;10.10;99.90;;;;;;5007323;28;20341;-72
2021/10/22 13:20:37;;;;;;;7.63;2.07;;;9.60;99.90;;;;;;5007968;28;20232;-73
2021/10/22 13:23:10;;;;;;;3.77;2.00;;;9.50;99.90;;;;;;5007978;28;20202;-73
2021/10/22 13:25:37;;;;;;;3.93;1.80;;;9.50;99.90;;;;;;5008252;28;20617;-73
2021/10/22 13:28:04;;;;;;;5.60;1.97;;;9.40;99.90;;;;;;5009740;28;20209;-73